createdAt,value
2023-01-11T00:01:37.089Z,4.59
2023-01-11T00:07:07.044Z,4.59
2023-01-11T00:12:20.988Z,4.61
2023-01-11T00:18:27.622Z,4.68
2023-01-11T00:24:31.587Z,4.67
2023-01-11T00:29:37.859Z,4.62
2023-01-11T00:34:44.163Z,4.59
2023-01-11T00:40:03.098Z,4.57
2023-01-11T00:45:27.708Z,4.63
2023-01-11T00:50:55.574Z,4.71
2023-01-11T00:56:03.723Z,4.76
2023-01-11T01:01:25.239Z,4.79
2023-01-11T01:06:31.880Z,4.73
2023-01-11T01:12:56.242Z,4.71
2023-01-11T01:19:03.077Z,4.77
2023-01-11T01:24:47.198Z,4.80
2023-01-11T01:30:41.344Z,4.84
2023-01-11T01:36:00.957Z,4.88
2023-01-11T01:41:04.817Z,4.95
2023-01-11T01:46:31.066Z,4.98
2023-01-11T01:52:19.502Z,4.99
2023-01-11T01:57:34.314Z,5.02
2023-01-11T02:02:49.773Z,5.10
2023-01-11T02:08:10.033Z,5.27
2023-01-11T02:13:14.534Z,5.35
2023-01-11T02:18:43.469Z,5.43
2023-01-11T02:24:55.006Z,5.39
2023-01-11T02:30:50.883Z,5.43
2023-01-11T02:36:33.108Z,5.51
2023-01-11T02:42:18.443Z,5.53
2023-01-11T02:48:40.831Z,5.56
2023-01-11T02:54:17.268Z,5.52
2023-01-11T02:59:56.926Z,5.43
2023-01-11T03:05:46.238Z,5.44
2023-01-11T03:11:45.817Z,5.50
2023-01-11T03:17:32.947Z,5.55
2023-01-11T03:23:00.626Z,5.49
2023-01-11T03:28:39.833Z,5.40
2023-01-11T03:33:59.921Z,5.50
2023-01-11T03:39:21.417Z,5.48
2023-01-11T03:44:37.026Z,5.44
2023-01-11T03:49:51.856Z,5.45
2023-01-11T03:55:39.442Z,5.43
2023-01-11T04:01:06.105Z,5.50
2023-01-11T04:06:21.339Z,5.58
2023-01-11T04:12:22.752Z,5.57
2023-01-11T04:18:04.989Z,5.49
2023-01-11T04:24:11.718Z,5.45
2023-01-11T04:29:25.349Z,5.44
2023-01-11T04:35:30.426Z,5.46
2023-01-11T04:41:13.944Z,5.40
2023-01-11T04:46:22.163Z,5.39
2023-01-11T04:51:36.946Z,5.43
2023-01-11T04:56:56.034Z,5.40
2023-01-11T05:02:39.996Z,5.33
2023-01-11T05:08:30.914Z,5.28
2023-01-11T05:13:45.502Z,5.27
2023-01-11T05:19:30.316Z,5.27
2023-01-11T05:25:30.742Z,5.29
2023-01-11T05:31:25.009Z,5.17
2023-01-11T05:36:46.353Z,5.12
2023-01-11T05:42:30.174Z,5.13
2023-01-11T05:48:13.864Z,5.15
2023-01-11T05:53:24.015Z,5.19
2023-01-11T05:59:11.048Z,5.27
2023-01-11T06:04:27.676Z,5.21
2023-01-11T06:09:51.274Z,5.09
2023-01-11T06:15:11.531Z,5.08
2023-01-11T06:20:25.567Z,5.11
2023-01-11T06:25:30.601Z,5.09
2023-01-11T06:30:37.625Z,5.09
2023-01-11T06:35:43.271Z,5.03
2023-01-11T06:40:54.285Z,4.99
2023-01-11T06:45:59.169Z,4.98
2023-01-11T06:51:04.941Z,5.08
2023-01-11T06:56:30.792Z,5.16
2023-01-11T07:01:37.519Z,5.12
2023-01-11T07:06:55.836Z,5.06
2023-01-11T07:12:22.117Z,4.99
2023-01-11T07:18:18.872Z,4.99
2023-01-11T07:24:02.644Z,4.99
2023-01-11T07:29:26.459Z,5.04
2023-01-11T07:34:29.881Z,5.04
2023-01-11T07:39:53.759Z,5.04
2023-01-11T07:45:10.827Z,5.08
2023-01-11T07:50:45.284Z,5.06
2023-01-11T07:56:49.444Z,4.97
2023-01-11T08:02:04.141Z,4.90
2023-01-11T08:07:47.861Z,4.90
2023-01-11T08:13:09.536Z,4.95
2023-01-11T08:18:33.072Z,4.96
2023-01-11T08:24:17.983Z,4.92
2023-01-11T08:29:33.144Z,4.81
2023-01-11T08:35:12.735Z,4.80
2023-01-11T08:40:39.863Z,4.80
2023-01-11T08:46:17.871Z,4.83
2023-01-11T08:52:32.495Z,4.79
2023-01-11T08:57:41.597Z,4.71
2023-01-11T09:03:42.325Z,4.68
2023-01-11T09:09:27.761Z,4.72
2023-01-11T09:14:38.331Z,4.77
2023-01-11T09:19:41.885Z,4.82
2023-01-11T09:24:45.234Z,4.83
2023-01-11T09:29:48.663Z,4.82
2023-01-11T09:34:57.364Z,4.79
2023-01-11T09:40:03.498Z,4.83
2023-01-11T09:45:18.815Z,4.88
2023-01-11T09:50:56.682Z,4.90
2023-01-11T09:56:14.661Z,4.86
2023-01-11T10:01:32.951Z,4.90
2023-01-11T10:07:11.716Z,4.99
2023-01-11T10:19:12.311Z,5.04
2023-01-11T10:24:42.294Z,5.03
2023-01-11T10:30:10.269Z,5.10
2023-01-11T10:35:51.894Z,5.20
2023-01-11T10:41:06.787Z,5.31
2023-01-11T10:46:23.408Z,5.38
2023-01-11T10:51:50.125Z,5.39
2023-01-11T10:57:09.145Z,5.43
2023-01-11T11:02:57.521Z,5.51
2023-01-11T11:09:20.296Z,5.53
2023-01-11T11:14:46.283Z,5.51
2023-01-11T11:19:53.428Z,5.48
2023-01-11T11:25:23.201Z,5.53
2023-01-11T11:30:54.997Z,5.56
2023-01-11T11:36:40.561Z,5.52
2023-01-11T11:42:08.713Z,5.46
2023-01-11T11:47:36.375Z,5.44
2023-01-11T11:53:03.733Z,5.41
2023-01-11T11:58:39.009Z,5.38
2023-01-11T12:04:15.091Z,5.43
2023-01-11T12:09:32.906Z,5.38
2023-01-11T12:15:08.901Z,5.30
2023-01-11T12:20:50.981Z,5.26
2023-01-11T12:26:16.855Z,5.33
2023-01-11T12:32:23.254Z,5.32
2023-01-11T12:38:33.671Z,5.31
2023-01-11T12:44:18.943Z,5.25
2023-01-11T12:50:06.467Z,5.23
2023-01-11T12:55:47.983Z,5.30
2023-01-11T13:02:01.115Z,5.39
2023-01-11T13:07:22.860Z,5.34
2023-01-11T13:13:16.619Z,5.35
2023-01-11T13:19:00.806Z,5.29
2023-01-11T13:25:05.144Z,5.27
2023-01-11T13:30:25.177Z,5.29
2023-01-11T13:36:01.798Z,5.24
2023-01-11T13:41:31.646Z,5.20
2023-01-11T13:47:05.349Z,5.16
2023-01-11T13:52:26.898Z,5.16
2023-01-11T13:58:25.514Z,5.16
2023-01-11T14:04:26.714Z,5.12
2023-01-11T14:10:08.595Z,5.07
2023-01-11T14:15:53.827Z,5.04
2023-01-11T14:21:18.549Z,5.06
2023-01-11T14:27:40.765Z,5.06
2023-01-11T14:33:35.377Z,4.98
2023-01-11T14:39:43.400Z,4.89
2023-01-11T14:45:17.132Z,4.87
2023-01-11T14:51:01.126Z,4.86
2023-01-11T14:57:09.392Z,4.83
2023-01-11T15:02:51.809Z,4.76
2023-01-11T15:08:20.178Z,4.67
2023-01-11T15:19:56.144Z,4.66
2023-01-11T15:25:47.801Z,4.72
2023-01-11T15:31:52.093Z,4.72
2023-01-11T15:37:05.643Z,4.62
2023-01-11T15:42:22.814Z,4.54
2023-01-11T15:48:27.596Z,4.49
2023-01-11T15:53:59.267Z,4.49
2023-01-11T15:59:30.212Z,4.58
2023-01-11T16:05:58.784Z,4.59
2023-01-11T16:11:41.602Z,4.58
2023-01-11T16:17:25.066Z,4.50
2023-01-11T16:22:31.322Z,4.49
2023-01-11T16:27:35.453Z,4.55
2023-01-11T16:33:10.349Z,4.58
2023-01-11T16:38:52.140Z,4.58
2023-01-11T16:44:47.690Z,4.54
2023-01-11T16:50:28.705Z,4.52
2023-01-11T16:56:05.651Z,4.57
2023-01-11T17:01:12.853Z,4.62
2023-01-11T17:06:34.217Z,4.63
2023-01-11T17:12:02.915Z,4.62
2023-01-11T17:17:40.735Z,4.68
2023-01-11T17:22:57.332Z,4.77
2023-01-11T17:28:26.469Z,4.82
2023-01-11T17:34:08.729Z,4.83
2023-01-11T17:39:42.190Z,4.83
2023-01-11T17:45:09.807Z,4.84
2023-01-11T17:50:38.488Z,4.91
2023-01-11T17:56:25.007Z,4.95
2023-01-11T18:01:52.250Z,4.93
2023-01-11T18:07:17.863Z,4.89
2023-01-11T18:12:45.372Z,4.87
2023-01-11T18:18:06.193Z,4.90
2023-01-11T18:23:35.943Z,4.95
2023-01-11T18:28:39.521Z,4.95
2023-01-11T18:33:46.356Z,4.89
2023-01-11T18:38:50.652Z,4.81
2023-01-11T18:44:05.057Z,4.76
2023-01-11T18:49:11.109Z,4.72
2023-01-11T18:54:30.542Z,4.68
2023-01-11T18:59:57.133Z,4.60
2023-01-11T19:05:03.770Z,4.58
2023-01-11T19:10:20.849Z,4.64
2023-01-11T19:15:44.470Z,4.68
2023-01-11T19:20:50.976Z,4.63
2023-01-11T19:25:58.868Z,4.58
2023-01-11T19:31:13.500Z,4.52
2023-01-11T19:36:16.867Z,4.50
2023-01-11T19:41:40.249Z,4.54
2023-01-11T19:47:10.512Z,4.62
2023-01-11T19:52:19.343Z,4.68
2023-01-11T19:57:58.296Z,4.62
2023-01-11T20:03:06.604Z,4.54
2023-01-11T20:08:15.917Z,4.46
2023-01-11T20:13:19.570Z,4.41
2023-01-11T20:18:23.028Z,4.37
2023-01-11T20:23:38.552Z,4.42
2023-01-11T20:28:50.232Z,4.45
2023-01-11T20:34:00.909Z,4.40
2023-01-11T20:39:27.491Z,4.36
2023-01-11T20:44:32.390Z,4.35
2023-01-11T20:49:35.938Z,4.39
2023-01-11T20:54:42.127Z,4.46
2023-01-11T21:05:53.889Z,4.58
2023-01-11T21:12:03.355Z,4.57
2023-01-11T21:18:10.527Z,4.59
2023-01-11T21:23:25.940Z,4.68
2023-01-11T21:29:16.508Z,4.74
2023-01-11T21:34:34.023Z,4.73
2023-01-11T21:39:44.604Z,4.70
2023-01-11T21:44:48.180Z,4.71
2023-01-11T21:50:03.379Z,4.75
2023-01-11T21:55:17.369Z,4.82
2023-01-11T22:00:55.484Z,4.88
2023-01-11T22:06:03.536Z,4.89
2023-01-11T22:11:26.021Z,4.87
2023-01-11T22:16:33.731Z,4.88
2023-01-11T22:21:41.039Z,4.94
2023-01-11T22:27:07.541Z,5.00
2023-01-11T22:32:36.180Z,5.06
2023-01-11T22:37:59.870Z,5.08
2023-01-11T22:43:09.865Z,5.06
2023-01-11T22:48:13.137Z,5.05
2023-01-11T22:53:42.386Z,5.08
2023-01-11T22:58:59.816Z,5.12
2023-01-11T23:04:07.624Z,5.18
2023-01-11T23:09:16.278Z,5.16
2023-01-11T23:14:51.332Z,5.14
2023-01-11T23:19:54.946Z,5.12
2023-01-11T23:25:09.589Z,5.17
2023-01-11T23:30:41.542Z,5.19
2023-01-11T23:36:29.504Z,5.17
2023-01-11T23:42:05.348Z,5.12
2023-01-11T23:47:21.322Z,5.10
2023-01-11T23:52:31.545Z,5.10
2023-01-11T23:57:37.507Z,5.15
